createdAt,value
2023-01-07T00:01:38.808Z,99.90
2023-01-07T00:04:07.767Z,99.90
2023-01-07T00:06:39.717Z,99.90
2023-01-07T00:09:08.136Z,99.90
2023-01-07T00:11:37.795Z,99.90
2023-01-07T00:14:06.275Z,99.90
2023-01-07T00:16:40.287Z,99.90
2023-01-07T00:19:08.885Z,99.90
2023-01-07T00:21:38.082Z,99.90
2023-01-07T00:24:06.441Z,99.90
2023-01-07T00:26:38.093Z,99.90
2023-01-07T00:29:05.905Z,99.90
2023-01-07T00:31:35.117Z,99.90
2023-01-07T00:34:02.391Z,99.90
2023-01-07T00:36:41.732Z,99.90
2023-01-07T00:39:20.796Z,99.90
2023-01-07T00:42:07.207Z,99.90
2023-01-07T00:44:34.193Z,99.90
2023-01-07T00:47:01.197Z,99.90
2023-01-07T00:49:28.172Z,99.90
2023-01-07T00:51:55.065Z,99.90
2023-01-07T00:54:21.882Z,99.90
2023-01-07T00:56:48.752Z,99.90
2023-01-07T00:59:15.445Z,99.90
2023-01-07T01:01:42.160Z,99.90
2023-01-07T01:04:08.957Z,99.90
2023-01-07T01:06:35.664Z,99.90
2023-01-07T01:09:02.435Z,99.90
2023-01-07T01:11:29.189Z,99.90
2023-01-07T01:13:55.903Z,99.90
2023-01-07T01:16:22.608Z,99.90
2023-01-07T01:18:49.416Z,99.90
2023-01-07T01:21:17.168Z,99.90
2023-01-07T01:23:44.137Z,99.90
2023-01-07T01:26:16.316Z,99.90
2023-01-07T01:28:43.996Z,99.90
2023-01-07T01:31:11.612Z,99.90
2023-01-07T01:33:39.946Z,99.90
2023-01-07T01:36:10.368Z,99.90
2023-01-07T01:38:37.496Z,99.90
2023-01-07T01:41:04.950Z,99.90
2023-01-07T01:43:37.983Z,99.90
2023-01-07T01:46:12.115Z,99.90
2023-01-07T01:48:45.058Z,99.90
2023-01-07T01:51:14.363Z,99.90
2023-01-07T01:53:41.549Z,99.90
2023-01-07T01:56:37.759Z,99.90
2023-01-07T01:59:12.237Z,99.90
2023-01-07T02:01:39.199Z,99.90
2023-01-07T02:04:18.734Z,99.90
2023-01-07T02:07:04.984Z,99.90
2023-01-07T02:09:32.259Z,99.90
2023-01-07T02:12:01.953Z,99.90
2023-01-07T02:14:53.440Z,99.90
2023-01-07T02:17:47.094Z,99.90
2023-01-07T02:20:30.300Z,99.90
2023-01-07T02:23:29.341Z,99.90
2023-01-07T02:26:11.325Z,99.90
2023-01-07T02:29:15.652Z,99.90
2023-01-07T02:31:45.432Z,99.90
2023-01-07T02:34:18.846Z,99.90
2023-01-07T02:37:04.712Z,99.90
2023-01-07T02:40:03.922Z,99.90
2023-01-07T02:42:51.798Z,99.90
2023-01-07T02:45:28.207Z,99.90
2023-01-07T02:47:59.969Z,99.90
2023-01-07T02:50:27.059Z,99.90
2023-01-07T02:52:53.842Z,99.90
2023-01-07T02:55:39.352Z,99.90
2023-01-07T02:58:27.115Z,99.90
2023-01-07T03:01:26.174Z,99.90
2023-01-07T03:04:11.163Z,99.90
2023-01-07T03:06:54.960Z,99.90
2023-01-07T03:09:46.455Z,99.90
2023-01-07T03:12:27.758Z,99.90
2023-01-07T03:15:02.969Z,99.90
2023-01-07T03:17:40.227Z,99.90
2023-01-07T03:20:07.821Z,99.90
2023-01-07T03:22:37.511Z,99.90
2023-01-07T03:25:06.681Z,99.90
2023-01-07T03:27:36.526Z,99.90
2023-01-07T03:30:11.604Z,99.90
2023-01-07T03:32:57.777Z,99.90
2023-01-07T03:35:30.369Z,99.90
2023-01-07T03:38:00.463Z,99.90
2023-01-07T03:40:27.232Z,99.90
2023-01-07T03:42:54.696Z,99.90
2023-01-07T03:45:23.461Z,99.90
2023-01-07T03:47:52.378Z,99.90
2023-01-07T03:50:20.050Z,99.90
2023-01-07T03:52:48.439Z,99.90
2023-01-07T03:55:17.868Z,99.90
2023-01-07T03:57:47.592Z,99.90
2023-01-07T04:00:17.529Z,99.90
2023-01-07T04:02:44.598Z,99.90
2023-01-07T04:05:11.598Z,99.90
2023-01-07T04:07:41.550Z,99.90
2023-01-07T04:10:09.560Z,99.90
2023-01-07T04:12:36.395Z,99.90
2023-01-07T04:15:04.879Z,99.90
2023-01-07T04:17:31.572Z,99.90
2023-01-07T04:20:01.205Z,99.90
2023-01-07T04:22:27.895Z,99.90
2023-01-07T04:24:54.659Z,99.90
2023-01-07T04:27:21.406Z,99.90
2023-01-07T04:29:48.088Z,99.90
2023-01-07T04:32:14.783Z,99.90
2023-01-07T04:34:41.491Z,99.90
2023-01-07T04:37:11.138Z,99.90
2023-01-07T04:39:37.784Z,99.90
2023-01-07T04:42:04.560Z,99.90
2023-01-07T04:44:31.252Z,99.90
2023-01-07T04:46:58.121Z,99.90
2023-01-07T04:49:24.837Z,99.90
2023-01-07T04:51:51.695Z,99.90
2023-01-07T04:54:18.343Z,99.90
2023-01-07T04:56:45.670Z,99.90
2023-01-07T04:59:12.524Z,99.90
2023-01-07T05:01:39.410Z,99.90
2023-01-07T05:04:06.204Z,99.90
2023-01-07T05:06:33.179Z,99.90
2023-01-07T05:09:00.126Z,99.90
2023-01-07T05:11:26.889Z,99.90
2023-01-07T05:13:53.571Z,99.90
2023-01-07T05:16:20.393Z,99.90
2023-01-07T05:18:52.927Z,99.90
2023-01-07T05:21:19.639Z,99.90
2023-01-07T05:23:49.231Z,99.90
2023-01-07T05:26:16.797Z,99.90
2023-01-07T05:28:45.593Z,99.90
2023-01-07T05:31:12.355Z,99.90
2023-01-07T05:33:41.192Z,99.90
2023-01-07T05:36:08.109Z,99.90
2023-01-07T05:38:34.806Z,99.90
2023-01-07T05:41:01.465Z,99.90
2023-01-07T05:43:28.648Z,99.90
2023-01-07T05:46:00.975Z,99.90
2023-01-07T05:48:27.770Z,99.90
2023-01-07T05:50:54.439Z,99.90
2023-01-07T05:53:21.173Z,99.90
2023-01-07T05:55:47.962Z,99.90
2023-01-07T05:58:17.786Z,99.90
2023-01-07T06:00:47.640Z,99.90
2023-01-07T06:03:14.691Z,99.90
2023-01-07T06:05:43.855Z,99.90
2023-01-07T06:08:10.715Z,99.90
2023-01-07T06:10:45.706Z,99.90
2023-01-07T06:13:12.391Z,99.90
2023-01-07T06:15:41.459Z,99.90
2023-01-07T06:18:08.251Z,99.90
2023-01-07T06:20:34.998Z,99.90
2023-01-07T06:23:04.331Z,99.90
2023-01-07T06:25:31.111Z,99.90
2023-01-07T06:27:58.398Z,99.90
2023-01-07T06:30:28.162Z,99.90
2023-01-07T06:32:57.696Z,99.90
2023-01-07T06:35:24.526Z,99.90
2023-01-07T06:37:51.192Z,99.90
2023-01-07T06:40:18.222Z,99.90
2023-01-07T06:42:44.855Z,99.90
2023-01-07T06:45:12.667Z,99.90
2023-01-07T06:47:39.453Z,99.90
2023-01-07T06:50:06.862Z,99.90
2023-01-07T06:52:34.149Z,99.90
2023-01-07T06:55:00.800Z,99.90
2023-01-07T06:57:27.499Z,99.90
2023-01-07T06:59:54.129Z,99.90
2023-01-07T07:02:23.479Z,99.90
2023-01-07T07:04:50.316Z,99.90
2023-01-07T07:07:17.596Z,99.90
2023-01-07T07:09:44.565Z,99.90
2023-01-07T07:12:11.464Z,99.90
2023-01-07T07:14:41.051Z,99.90
2023-01-07T07:17:07.943Z,99.90
2023-01-07T07:19:34.637Z,99.90
2023-01-07T07:22:03.216Z,99.90
2023-01-07T07:24:30.645Z,99.90
2023-01-07T07:26:57.303Z,99.90
2023-01-07T07:29:24.000Z,99.90
2023-01-07T07:31:50.661Z,99.90
2023-01-07T07:34:22.487Z,99.90
2023-01-07T07:36:49.181Z,99.90
2023-01-07T07:39:16.281Z,99.90
2023-01-07T07:41:42.936Z,99.90
2023-01-07T07:44:10.283Z,99.90
2023-01-07T07:46:36.981Z,99.90
2023-01-07T07:49:04.010Z,99.90
2023-01-07T07:51:31.198Z,99.90
2023-01-07T07:53:58.105Z,99.90
2023-01-07T07:56:24.758Z,99.90
2023-01-07T07:58:51.474Z,99.90
2023-01-07T08:01:18.302Z,99.90
2023-01-07T08:03:45.026Z,99.90
2023-01-07T08:06:12.851Z,99.90
2023-01-07T08:08:39.644Z,99.90
2023-01-07T08:11:06.320Z,99.90
2023-01-07T08:13:33.224Z,99.90
2023-01-07T08:16:00.053Z,99.90
2023-01-07T08:18:26.863Z,99.90
2023-01-07T08:20:55.347Z,99.90
2023-01-07T08:23:22.058Z,99.90
2023-01-07T08:25:48.808Z,99.90
2023-01-07T08:28:15.493Z,99.90
2023-01-07T08:30:43.026Z,99.90
2023-01-07T08:33:12.815Z,99.90
2023-01-07T08:35:39.458Z,99.90
2023-01-07T08:38:08.675Z,99.90
2023-01-07T08:40:36.753Z,99.90
2023-01-07T08:43:05.626Z,99.90
2023-01-07T08:45:32.800Z,99.90
2023-01-07T08:47:59.676Z,99.90
2023-01-07T08:50:28.823Z,99.90
2023-01-07T08:52:55.857Z,99.90
2023-01-07T08:55:23.304Z,99.90
2023-01-07T08:57:50.269Z,99.90
2023-01-07T09:00:18.428Z,99.90
2023-01-07T09:02:45.693Z,99.90
2023-01-07T09:05:12.779Z,99.90
2023-01-07T09:07:42.774Z,99.90
2023-01-07T09:10:11.438Z,99.90
2023-01-07T09:12:38.653Z,99.90
2023-01-07T09:15:05.939Z,99.90
2023-01-07T09:17:32.625Z,99.90
2023-01-07T09:20:03.396Z,99.90
2023-01-07T09:22:32.238Z,99.90
2023-01-07T09:24:59.071Z,99.90
2023-01-07T09:27:28.842Z,99.90
2023-01-07T09:30:00.936Z,99.90
2023-01-07T09:32:28.523Z,99.90
2023-01-07T09:35:01.319Z,99.90
2023-01-07T09:37:28.017Z,99.90
2023-01-07T09:39:54.782Z,99.90
2023-01-07T09:42:42.861Z,99.90
2023-01-07T09:45:23.303Z,99.90
2023-01-07T09:47:54.652Z,99.90
2023-01-07T09:50:46.553Z,99.90
2023-01-07T09:53:20.093Z,99.90
2023-01-07T09:56:10.869Z,99.90
2023-01-07T09:58:38.082Z,99.90
2023-01-07T10:01:20.420Z,99.90
2023-01-07T10:03:47.256Z,99.90
2023-01-07T10:06:44.420Z,99.90
2023-01-07T10:09:45.719Z,99.90
2023-01-07T10:12:30.478Z,99.90
2023-01-07T10:15:34.534Z,99.90
2023-01-07T10:18:25.421Z,99.90
2023-01-07T10:21:18.733Z,99.90
2023-01-07T10:23:51.962Z,99.90
2023-01-07T10:26:41.353Z,99.90
2023-01-07T10:29:32.076Z,99.90
2023-01-07T10:32:08.147Z,99.90
2023-01-07T10:34:45.382Z,99.90
2023-01-07T10:37:32.773Z,99.90
2023-01-07T10:40:24.416Z,99.90
2023-01-07T10:43:14.784Z,99.90
2023-01-07T10:45:41.460Z,99.90
2023-01-07T10:48:21.162Z,99.90
2023-01-07T10:50:51.151Z,99.90
2023-01-07T10:53:50.280Z,99.90
2023-01-07T10:56:17.008Z,99.90
2023-01-07T10:58:46.012Z,99.90
2023-01-07T11:01:23.087Z,99.90
2023-01-07T11:03:55.240Z,99.90
2023-01-07T11:06:57.243Z,99.90
2023-01-07T11:09:29.689Z,99.90
2023-01-07T11:12:03.430Z,99.90
2023-01-07T11:14:36.092Z,99.90
2023-01-07T11:17:15.612Z,99.90
2023-01-07T11:19:49.201Z,99.90
2023-01-07T11:22:33.367Z,99.90
2023-01-07T11:25:02.625Z,99.90
2023-01-07T11:27:34.340Z,99.90
2023-01-07T11:30:19.157Z,99.90
2023-01-07T11:32:55.762Z,99.90
2023-01-07T11:35:23.700Z,99.90
2023-01-07T11:37:51.015Z,99.90
2023-01-07T11:40:19.577Z,99.90
2023-01-07T11:43:22.304Z,99.90
2023-01-07T11:46:20.542Z,99.90
2023-01-07T11:48:42.788Z,99.90
2023-01-07T11:51:10.926Z,99.90
2023-01-07T11:53:51.351Z,99.90
2023-01-07T11:56:21.222Z,99.90
2023-01-07T11:59:12.319Z,99.90
2023-01-07T12:01:52.809Z,99.90
2023-01-07T12:04:35.606Z,99.90
2023-01-07T12:07:12.777Z,99.90
2023-01-07T12:09:41.792Z,99.90
2023-01-07T12:12:31.687Z,99.90
2023-01-07T12:15:26.479Z,99.90
2023-01-07T12:18:28.241Z,99.90
2023-01-07T12:21:06.897Z,99.90
2023-01-07T12:23:49.621Z,99.90
2023-01-07T12:26:45.374Z,99.90
2023-01-07T12:29:49.476Z,99.90
2023-01-07T12:32:22.042Z,99.90
2023-01-07T12:35:15.341Z,99.90
2023-01-07T12:37:59.872Z,99.90
2023-01-07T12:40:32.683Z,99.90
2023-01-07T12:43:28.125Z,99.90
2023-01-07T12:46:00.251Z,99.90
2023-01-07T12:49:05.033Z,99.90
2023-01-07T12:51:38.826Z,99.90
2023-01-07T12:54:27.917Z,99.90
2023-01-07T12:57:03.616Z,99.90
2023-01-07T12:59:46.876Z,99.90
2023-01-07T13:02:48.244Z,99.90
2023-01-07T13:05:38.165Z,99.90
2023-01-07T13:08:30.583Z,99.90
2023-01-07T13:11:03.434Z,99.90
2023-01-07T13:13:48.444Z,99.90
2023-01-07T13:16:15.137Z,99.90
2023-01-07T13:18:42.003Z,99.90
2023-01-07T13:21:18.159Z,99.90
2023-01-07T13:23:57.169Z,99.90
2023-01-07T13:26:31.885Z,99.90
2023-01-07T13:29:08.761Z,99.90
2023-01-07T13:32:00.135Z,99.90
2023-01-07T13:34:57.052Z,99.90
2023-01-07T13:37:48.019Z,99.90
2023-01-07T13:40:51.736Z,99.90
2023-01-07T13:43:52.018Z,99.90
2023-01-07T13:46:22.243Z,99.90
2023-01-07T13:48:54.575Z,99.90
2023-01-07T13:51:34.100Z,99.90
2023-01-07T13:54:01.183Z,99.90
2023-01-07T13:56:27.852Z,99.90
2023-01-07T13:58:55.888Z,99.90
2023-01-07T14:01:25.017Z,99.90
2023-01-07T14:03:53.333Z,99.90
2023-01-07T14:06:20.449Z,99.90
2023-01-07T14:08:51.723Z,99.90
2023-01-07T14:11:20.688Z,99.90
2023-01-07T14:14:06.118Z,99.90
2023-01-07T14:17:02.915Z,99.90
2023-01-07T14:19:46.098Z,99.90
2023-01-07T14:22:46.717Z,99.90
2023-01-07T14:25:41.270Z,99.90
2023-01-07T14:28:29.086Z,99.90
2023-01-07T14:30:56.270Z,99.90
2023-01-07T14:33:26.964Z,99.90
2023-01-07T14:36:04.279Z,99.90
2023-01-07T14:38:34.069Z,99.90
2023-01-07T14:41:10.804Z,99.90
2023-01-07T14:43:40.766Z,99.90
2023-01-07T14:46:27.465Z,99.90
2023-01-07T14:49:03.275Z,99.90
2023-01-07T14:51:56.280Z,99.90
2023-01-07T14:54:41.914Z,99.90
2023-01-07T14:57:27.388Z,99.90
2023-01-07T15:00:19.890Z,99.90
2023-01-07T15:03:22.383Z,99.90
2023-01-07T15:06:03.522Z,99.90
2023-01-07T15:09:09.170Z,99.90
2023-01-07T15:11:56.822Z,99.90
2023-01-07T15:14:55.885Z,99.90
2023-01-07T15:17:23.804Z,99.90
2023-01-07T15:19:54.363Z,99.90
2023-01-07T15:22:39.429Z,99.90
2023-01-07T15:25:41.471Z,99.90
2023-01-07T15:28:21.195Z,99.90
2023-01-07T15:30:52.205Z,99.90
2023-01-07T15:33:44.870Z,99.90
2023-01-07T15:36:13.860Z,99.90
2023-01-07T15:38:50.746Z,99.90
2023-01-07T15:41:38.520Z,99.90
2023-01-07T15:44:13.098Z,99.90
2023-01-07T15:46:41.074Z,99.90
2023-01-07T15:49:16.453Z,99.90
2023-01-07T15:51:51.620Z,99.90
2023-01-07T15:54:38.273Z,99.90
2023-01-07T15:57:17.288Z,99.90
2023-01-07T15:59:47.454Z,99.90
2023-01-07T16:02:25.000Z,99.90
2023-01-07T16:04:57.753Z,99.90
2023-01-07T16:07:29.225Z,99.90
2023-01-07T16:09:57.552Z,99.90
2023-01-07T16:12:42.621Z,99.90
2023-01-07T16:15:29.952Z,99.90
2023-01-07T16:18:01.484Z,99.90
2023-01-07T16:20:37.607Z,99.90
2023-01-07T16:23:11.184Z,99.90
2023-01-07T16:25:42.036Z,99.90
2023-01-07T16:28:19.916Z,99.90
2023-01-07T16:30:47.890Z,99.90
2023-01-07T16:33:21.953Z,99.90
2023-01-07T16:35:51.183Z,99.90
2023-01-07T16:38:19.843Z,99.90
2023-01-07T16:40:48.053Z,99.90
2023-01-07T16:44:00.136Z,99.90
2023-01-07T16:46:42.781Z,99.90
2023-01-07T16:49:15.736Z,99.90
2023-01-07T16:51:50.663Z,99.90
2023-01-07T16:54:26.013Z,99.90
2023-01-07T16:57:04.794Z,99.90
2023-01-07T16:59:34.569Z,99.90
2023-01-07T17:02:29.345Z,99.90
2023-01-07T17:05:09.688Z,99.90
2023-01-07T17:07:37.740Z,99.90
2023-01-07T17:10:05.534Z,99.90
2023-01-07T17:12:37.857Z,99.90
2023-01-07T17:15:33.156Z,99.90
2023-01-07T17:18:12.651Z,99.90
2023-01-07T17:20:46.935Z,99.90
2023-01-07T17:23:28.782Z,99.90
2023-01-07T17:26:02.470Z,99.90
2023-01-07T17:28:33.297Z,99.90
2023-01-07T17:31:00.849Z,99.90
2023-01-07T17:33:27.928Z,99.90
2023-01-07T17:36:05.878Z,99.90
2023-01-07T17:38:32.663Z,99.90
2023-01-07T17:41:00.502Z,99.90
2023-01-07T17:43:37.616Z,99.90
2023-01-07T17:46:12.593Z,99.90
2023-01-07T17:48:39.547Z,99.90
2023-01-07T17:51:07.164Z,99.90
2023-01-07T17:53:43.531Z,99.90
2023-01-07T17:56:10.553Z,99.90
2023-01-07T17:58:41.359Z,99.90
2023-01-07T18:01:10.530Z,99.90
2023-01-07T18:03:37.629Z,99.90
2023-01-07T18:06:11.061Z,99.90
2023-01-07T18:08:39.816Z,99.90
2023-01-07T18:11:25.227Z,99.90
2023-01-07T18:13:51.895Z,99.90
2023-01-07T18:16:18.629Z,99.90
2023-01-07T18:18:48.511Z,99.90
2023-01-07T18:21:15.337Z,99.90
2023-01-07T18:23:42.037Z,99.90
2023-01-07T18:26:08.909Z,99.90
2023-01-07T18:28:35.567Z,99.90
2023-01-07T18:31:02.198Z,99.90
2023-01-07T18:33:29.087Z,1.00
2023-01-07T18:35:55.763Z,1.00
2023-01-07T18:38:22.410Z,99.90
2023-01-07T18:40:49.047Z,99.90
2023-01-07T18:43:22.285Z,1.00
2023-01-07T18:45:55.241Z,99.90
2023-01-07T18:48:21.963Z,1.00
2023-01-07T18:50:49.698Z,99.90
2023-01-07T18:53:18.079Z,1.00
2023-01-07T18:55:57.824Z,99.90
2023-01-07T18:58:25.359Z,93.80
2023-01-07T19:01:03.042Z,1.00
2023-01-07T19:03:29.818Z,99.90
2023-01-07T19:06:10.184Z,3.90
2023-01-07T19:08:37.879Z,1.00
2023-01-07T19:11:13.751Z,1.00
2023-01-07T19:13:41.213Z,99.90
2023-01-07T19:16:13.169Z,99.90
2023-01-07T19:18:42.886Z,99.90
2023-01-07T19:21:13.629Z,99.90
2023-01-07T19:23:40.404Z,99.90
2023-01-07T19:26:09.493Z,99.90
2023-01-07T19:28:38.979Z,99.90
2023-01-07T19:31:07.335Z,99.90
2023-01-07T19:33:37.518Z,99.90
2023-01-07T19:36:10.132Z,99.90
2023-01-07T19:38:47.506Z,99.90
2023-01-07T19:41:19.451Z,1.00
2023-01-07T19:43:47.202Z,1.00
2023-01-07T19:46:15.604Z,99.90
2023-01-07T19:48:42.690Z,99.90
2023-01-07T19:51:12.541Z,99.90
2023-01-07T19:53:47.846Z,99.90
2023-01-07T19:56:14.544Z,99.90
2023-01-07T19:58:42.104Z,99.90
2023-01-07T20:01:15.948Z,99.90
2023-01-07T20:03:45.877Z,99.90
2023-01-07T20:06:18.505Z,99.90
2023-01-07T20:08:45.985Z,99.90
2023-01-07T20:11:13.512Z,99.90
2023-01-07T20:13:40.840Z,99.90
2023-01-07T20:16:12.886Z,99.90
2023-01-07T20:18:42.233Z,99.90
2023-01-07T20:21:10.371Z,1.00
2023-01-07T20:23:38.549Z,1.00
2023-01-07T20:26:07.230Z,1.00
2023-01-07T20:28:35.511Z,1.00
2023-01-07T20:31:07.713Z,1.00
2023-01-07T20:33:35.351Z,1.00
2023-01-07T20:36:04.909Z,1.00
2023-01-07T20:38:32.468Z,99.90
2023-01-07T20:41:00.467Z,99.90
2023-01-07T20:43:27.451Z,1.00
2023-01-07T20:45:59.020Z,74.10
2023-01-07T20:48:26.038Z,99.90
2023-01-07T20:50:52.772Z,1.00
2023-01-07T20:53:19.674Z,99.90
2023-01-07T20:55:46.758Z,1.00
2023-01-07T20:58:13.409Z,1.00
2023-01-07T21:00:41.767Z,99.90
2023-01-07T21:03:09.076Z,1.00
2023-01-07T21:05:37.958Z,1.00
2023-01-07T21:08:04.628Z,1.00
2023-01-07T21:10:33.161Z,1.00
2023-01-07T21:13:01.452Z,99.90
2023-01-07T21:15:28.202Z,99.90
2023-01-07T21:17:54.913Z,99.90
2023-01-07T21:20:21.714Z,99.90
2023-01-07T21:22:48.598Z,99.90
2023-01-07T21:25:16.021Z,99.90
2023-01-07T21:27:43.227Z,99.90
2023-01-07T21:30:16.352Z,99.90
2023-01-07T21:32:43.354Z,99.90
2023-01-07T21:35:12.219Z,99.90
2023-01-07T21:37:39.509Z,99.90
2023-01-07T21:40:07.145Z,99.90
2023-01-07T21:42:36.530Z,99.90
2023-01-07T21:45:04.386Z,99.90
2023-01-07T21:47:33.877Z,99.90
2023-01-07T21:50:00.585Z,99.90
2023-01-07T21:52:27.331Z,99.90
2023-01-07T21:54:55.964Z,99.90
2023-01-07T21:57:23.789Z,99.90
2023-01-07T21:59:50.492Z,99.90
2023-01-07T22:02:18.993Z,96.40
2023-01-07T22:04:47.243Z,97.80
2023-01-07T22:07:15.850Z,99.90
2023-01-07T22:09:43.312Z,99.90
2023-01-07T22:12:14.267Z,99.90
2023-01-07T22:14:41.272Z,99.90
2023-01-07T22:17:13.959Z,99.90
2023-01-07T22:19:40.761Z,99.90
2023-01-07T22:22:10.415Z,99.90
2023-01-07T22:24:37.179Z,99.90
2023-01-07T22:27:04.117Z,99.90
2023-01-07T22:29:32.369Z,99.90
2023-01-07T22:31:59.127Z,99.90
2023-01-07T22:34:25.873Z,97.60
2023-01-07T22:37:06.355Z,92.80
2023-01-07T22:39:41.038Z,98.10
2023-01-07T22:42:17.056Z,89.90
2023-01-07T22:44:47.457Z,78.80
2023-01-07T22:47:23.331Z,44.70
2023-01-07T22:49:51.064Z,25.00
2023-01-07T22:52:21.064Z,1.00
2023-01-07T22:54:47.898Z,1.00
2023-01-07T22:57:15.216Z,1.00
2023-01-07T22:59:41.899Z,1.00
2023-01-07T23:02:08.662Z,1.00
2023-01-07T23:04:35.703Z,1.00
2023-01-07T23:07:02.778Z,38.60
2023-01-07T23:09:29.471Z,99.90
2023-01-07T23:11:59.529Z,99.90
2023-01-07T23:14:27.679Z,99.90
2023-01-07T23:16:55.071Z,99.90
2023-01-07T23:19:22.557Z,1.00
2023-01-07T23:21:52.041Z,1.00
2023-01-07T23:24:19.992Z,1.00
2023-01-07T23:26:48.872Z,1.00
2023-01-07T23:29:15.621Z,1.00
2023-01-07T23:31:42.381Z,1.00
2023-01-07T23:34:09.653Z,99.90
2023-01-07T23:36:37.619Z,99.90
2023-01-07T23:39:05.352Z,99.90
2023-01-07T23:41:32.805Z,99.90
2023-01-07T23:44:01.924Z,99.90
2023-01-07T23:46:31.889Z,99.90
2023-01-07T23:48:58.605Z,99.90
2023-01-07T23:51:27.517Z,92.10
2023-01-07T23:53:54.273Z,1.50
2023-01-07T23:56:21.500Z,1.00
2023-01-07T23:58:51.736Z,1.00
